Time;durP1;ratioP1;P1;durP2;ratioP2;P2;SDS_P1;SDS_P2;PMS_P1;PMS_P2;Temp;Humidity;BMP_temperature;BMP_pressure;BME280_temperature;BME280_humidity;BME280_pressure;Samples;Min_cycle;Max_cycle;Signal;HPM_P1;HPM_P2
2021/11/18 10:40:02;;;;;;;35.58;13.75;;;7.80;99.90;;;;;;5090848;28;20540;-79
2021/11/18 10:42:38;;;;;;;40.63;13.80;;;7.80;99.90;;;;;;5090850;28;20211;-79
2021/11/18 10:45:27;;;;;;;32.60;12.60;;;7.80;99.90;;;;;;5090803;28;20168;-79
2021/11/18 10:47:55;;;;;;;32.58;12.73;;;7.90;99.90;;;;;;5090601;28;20633;-79
2021/11/18 10:50:41;;;;;;;30.60;13.00;;;8.00;99.90;;;;;;5090627;28;20172;-79
2021/11/18 10:53:13;;;;;;;30.17;12.43;;;8.00;99.90;;;;;;5090706;28;20216;-79
2021/11/18 10:55:42;;;;;;;31.75;12.38;;;8.00;99.90;;;;;;5090649;28;20167;-79
2021/11/18 10:58:31;;;;;;;25.95;11.50;;;8.10;99.90;;;;;;5090521;28;20612;-79
2021/11/18 11:01:11;;;;;;;28.08;11.05;;;8.20;99.90;;;;;;5090451;28;20301;-79
2021/11/18 11:03:41;;;;;;;33.50;12.25;;;8.30;99.90;;;;;;5090708;28;20171;-79
2021/11/18 11:06:14;;;;;;;38.63;14.88;;;8.20;99.90;;;;;;5090378;28;20160;-79
2021/11/18 11:08:46;;;;;;;29.60;12.98;;;8.20;99.90;;;;;;5090392;28;20183;-79
2021/11/18 11:11:26;;;;;;;28.45;12.07;;;8.10;99.90;;;;;;5090308;28;20186;-79
2021/11/18 11:14:13;;;;;;;37.28;12.35;;;8.20;99.90;;;;;;5090303;28;20166;-79
2021/11/18 11:17:05;;;;;;;28.75;12.30;;;8.20;99.90;;;;;;5090262;28;20168;-79
2021/11/18 11:19:35;;;;;;;32.38;11.93;;;8.30;99.90;;;;;;5090055;28;20237;-79
2021/11/18 11:22:10;;;;;;;28.90;12.57;;;8.40;99.90;;;;;;5090098;28;20583;-79
2021/11/18 11:25:07;;;;;;;31.48;12.57;;;8.30;99.90;;;;;;5090049;28;20170;-79
2021/11/18 11:28:17;;;;;;;27.70;11.68;;;8.40;99.90;;;;;;5090004;28;20171;-79
2021/11/18 11:31:21;;;;;;;34.60;11.88;;;8.40;99.90;;;;;;5087660;28;20184;-79
2021/11/18 11:34:10;;;;;;;28.35;11.82;;;8.60;99.90;;;;;;5078350;28;20187;-80
2021/11/18 11:36:46;;;;;;;31.60;11.20;;;8.30;99.90;;;;;;5069553;28;20199;-79
2021/11/18 11:39:44;;;;;;;31.27;11.52;;;8.20;99.90;;;;;;5069245;28;20220;-79
2021/11/18 11:42:32;;;;;;;30.88;10.45;;;8.30;99.90;;;;;;5068070;28;20533;-79
2021/11/18 11:45:17;;;;;;;32.20;11.85;;;8.30;99.90;;;;;;5069359;28;20168;-79
2021/11/18 11:48:04;;;;;;;37.78;12.00;;;8.30;99.90;;;;;;5069310;28;20172;-79
2021/11/18 11:50:51;;;;;;;27.02;11.43;;;8.40;99.90;;;;;;5059216;28;20176;-79
2021/11/18 11:53:38;;;;;;;26.08;9.98;;;8.40;99.90;;;;;;5055968;28;20514;-79
2021/11/18 11:56:30;;;;;;;34.28;12.13;;;8.40;99.90;;;;;;5056051;28;20172;-80
2021/11/18 11:59:04;;;;;;;23.75;11.75;;;8.70;99.90;;;;;;5054063;28;20205;-79
2021/11/18 12:01:38;;;;;;;29.00;11.20;;;8.40;99.90;;;;;;5055894;28;20631;-79
2021/11/18 12:04:18;;;;;;;27.17;10.65;;;8.40;99.90;;;;;;5055868;28;20195;-79
2021/11/18 12:06:51;;;;;;;29.73;11.02;;;8.40;99.90;;;;;;5054487;28;20634;-79
2021/11/18 12:09:44;;;;;;;26.02;12.23;;;8.40;99.90;;;;;;5055733;28;20169;-79
2021/11/18 12:12:34;;;;;;;33.42;11.38;;;8.80;99.90;;;;;;5055659;28;20173;-79
2021/11/18 12:15:02;;;;;;;36.25;11.68;;;8.40;99.90;;;;;;5054279;28;20528;-79
2021/11/18 12:17:42;;;;;;;25.80;11.45;;;8.40;99.90;;;;;;5054258;28;20624;-79
2021/11/18 12:20:13;;;;;;;25.52;9.80;;;8.60;99.90;;;;;;5055509;28;20173;-79
2021/11/18 12:22:39;;;;;;;20.92;9.13;;;8.60;99.90;;;;;;5054309;28;20173;-79
2021/11/18 12:25:22;;;;;;;30.00;10.52;;;8.70;99.90;;;;;;5054172;28;20173;-80
2021/11/18 12:28:06;;;;;;;31.73;10.27;;;8.70;99.90;;;;;;5055361;28;20165;-79
2021/11/18 12:30:49;;;;;;;22.27;8.95;;;8.70;99.90;;;;;;5055310;28;20169;-79
2021/11/18 12:33:18;;;;;;;30.77;10.45;;;8.60;99.90;;;;;;5055307;28;20202;-79
2021/11/18 12:35:56;;;;;;;23.33;10.32;;;8.60;99.90;;;;;;5055119;28;20193;-79
2021/11/18 12:38:43;;;;;;;28.08;7.65;;;9.00;99.90;;;;;;5054913;28;20216;-79
2021/11/18 12:41:27;;;;;;;29.52;8.43;;;8.70;99.90;;;;;;5055141;28;20177;-79
2021/11/18 12:44:15;;;;;;;28.05;8.65;;;8.80;99.90;;;;;;5053824;28;20264;-80
2021/11/18 12:46:49;;;;;;;21.73;6.85;;;8.80;99.90;;;;;;5054989;28;20169;-79
2021/11/18 12:49:18;;;;;;;18.88;6.82;;;8.80;99.90;;;;;;5054881;28;20173;-79
2021/11/18 12:51:44;;;;;;;25.73;6.43;;;8.90;99.90;;;;;;5054829;28;20177;-80
2021/11/18 12:54:09;;;;;;;16.08;5.85;;;8.80;99.90;;;;;;5054884;28;20176;-79
2021/11/18 12:57:09;;;;;;;32.83;7.38;;;8.80;99.90;;;;;;5054819;28;20577;-79
2021/11/18 12:59:46;;;;;;;25.60;7.93;;;8.80;99.90;;;;;;5054614;28;20200;-79
2021/11/18 13:02:26;;;;;;;18.25;6.50;;;8.80;99.90;;;;;;5053780;28;20168;-79
2021/11/18 13:05:15;;;;;;;19.80;6.80;;;8.80;99.90;;;;;;5054697;28;20247;-79
2021/11/18 13:07:46;;;;;;;17.17;6.55;;;8.80;99.90;;;;;;5043897;28;20537;-79
2021/11/18 13:10:18;;;;;;;13.90;5.30;;;8.70;99.90;;;;;;5054476;28;20169;-79
2021/11/18 13:13:02;;;;;;;24.90;6.57;;;8.90;99.90;;;;;;5054511;28;20181;-80
2021/11/18 13:15:43;;;;;;;21.10;5.88;;;8.80;99.90;;;;;;5054478;28;20161;-80
2021/11/18 13:18:54;;;;;;;21.40;5.68;;;8.70;99.90;;;;;;5053060;28;20291;-80
2021/11/18 13:21:26;;;;;;;24.65;5.35;;;8.80;99.90;;;;;;5032251;28;20697;-80
2021/11/18 13:23:54;;;;;;;23.83;6.35;;;9.60;99.90;;;;;;5052288;28;20192;-80
2021/11/18 13:26:35;;;;;;;10.45;4.53;;;8.90;99.90;;;;;;5054293;28;20165;-80
2021/11/18 13:29:13;;;;;;;34.35;5.80;;;8.90;99.90;;;;;;5054190;28;20181;-79
2021/11/18 13:32:02;;;;;;;13.50;5.80;;;8.90;99.90;;;;;;5054113;28;20240;-80
2021/11/18 13:34:41;;;;;;;20.58;5.93;;;8.90;99.90;;;;;;5054030;28;20180;-80
2021/11/18 13:37:12;;;;;;;8.95;5.00;;;9.30;99.90;;;;;;5054200;28;20180;-79
2021/11/18 13:40:10;;;;;;;18.48;5.03;;;9.00;99.90;;;;;;5053721;28;20220;-79
2021/11/18 13:42:43;;;;;;;18.15;5.95;;;9.00;99.90;;;;;;5041620;28;20204;-79
2021/11/18 13:45:24;;;;;;;14.93;4.57;;;9.20;99.90;;;;;;5053941;28;20168;-79
2021/11/18 13:48:00;;;;;;;19.45;6.22;;;9.40;99.90;;;;;;5052554;28;20173;-79
2021/11/18 13:50:49;;;;;;;14.93;4.57;;;9.60;99.90;;;;;;5053775;28;20165;-79
2021/11/18 13:53:19;;;;;;;18.58;4.53;;;9.60;99.90;;;;;;5049160;28;20204;-79
2021/11/18 13:55:50;;;;;;;12.15;4.20;;;9.50;99.90;;;;;;5053695;28;20573;-81
2021/11/18 13:58:31;;;;;;;14.18;4.82;;;9.60;99.90;;;;;;5052354;28;20565;-79
2021/11/18 14:01:01;;;;;;;14.15;3.85;;;9.60;99.90;;;;;;5053683;28;20165;-80
2021/11/18 14:03:34;;;;;;;18.52;4.35;;;10.10;99.90;;;;;;5052323;28;20693;-79
2021/11/18 14:06:06;;;;;;;15.98;4.47;;;9.50;99.90;;;;;;5053635;28;20230;-79
2021/11/18 14:08:52;;;;;;;21.42;4.68;;;9.50;99.90;;;;;;5053576;28;20269;-79
2021/11/18 14:11:28;;;;;;;22.70;5.05;;;10.60;99.90;;;;;;5053458;28;20173;-79
2021/11/18 14:13:58;;;;;;;13.35;4.35;;;9.50;99.90;;;;;;5053293;28;20546;-79
2021/11/18 14:16:36;;;;;;;14.15;5.68;;;9.50;99.90;;;;;;5052168;28;20246;-79
2021/11/18 14:19:04;;;;;;;17.13;4.32;;;9.50;99.90;;;;;;5053340;28;20681;-79
2021/11/18 14:22:01;;;;;;;16.77;4.47;;;9.60;99.90;;;;;;5053408;28;20211;-79
2021/11/18 14:24:39;;;;;;;17.33;4.95;;;9.60;99.90;;;;;;5052092;28;20177;-79
2021/11/18 14:27:07;;;;;;;14.48;5.45;;;9.60;99.90;;;;;;5053325;28;20177;-79
2021/11/18 14:30:01;;;;;;;22.52;6.05;;;9.50;99.90;;;;;;5052099;28;20184;-79
2021/11/18 14:32:57;;;;;;;23.00;5.15;;;9.40;99.90;;;;;;5053236;28;20195;-78
2021/11/18 14:36:00;;;;;;;15.48;5.03;;;9.40;99.90;;;;;;5053013;28;20203;-79
2021/11/18 14:38:47;;;;;;;18.50;5.53;;;9.30;99.90;;;;;;5052939;28;20301;-79
2021/11/18 14:41:23;;;;;;;22.83;4.72;;;9.30;99.90;;;;;;5051834;28;20172;-79
2021/11/18 14:44:11;;;;;;;23.88;6.82;;;9.20;99.90;;;;;;5053103;28;20502;-79
2021/11/18 14:47:04;;;;;;;18.13;4.63;;;9.20;99.90;;;;;;5051783;28;20216;-79
2021/11/18 14:49:41;;;;;;;21.70;5.72;;;9.20;99.90;;;;;;5053123;28;20177;-79
2021/11/18 14:52:18;;;;;;;15.95;4.80;;;9.10;99.90;;;;;;5052979;28;20176;-79
2021/11/18 14:54:45;;;;;;;9.70;4.43;;;9.10;99.90;;;;;;5053060;28;20172;-79
2021/11/18 14:57:28;;;;;;;26.48;5.45;;;9.10;99.90;;;;;;5052983;28;20169;-79
2021/11/18 14:59:56;;;;;;;15.68;5.38;;;9.00;99.90;;;;;;5053020;28;20157;-79
2021/11/18 15:02:23;;;;;;;15.00;6.13;;;9.00;99.90;;;;;;5052841;28;20172;-79
2021/11/18 15:04:49;;;;;;;10.63;4.85;;;9.00;99.90;;;;;;5052970;28;20154;-79
2021/11/18 15:07:21;;;;;;;14.32;4.47;;;9.30;99.90;;;;;;5052890;28;20181;-79
2021/11/18 15:09:48;;;;;;;9.68;4.28;;;8.90;99.90;;;;;;5052952;28;20165;-79
2021/11/18 15:12:34;;;;;;;15.05;4.40;;;8.90;99.90;;;;;;5052823;28;20252;-79
2021/11/18 15:15:05;;;;;;;27.92;4.88;;;8.90;99.90;;;;;;5052598;28;20723;-79
2021/11/18 15:17:30;;;;;;;17.65;4.63;;;8.80;99.90;;;;;;5052951;28;20231;-79
2021/11/18 15:19:57;;;;;;;17.55;6.10;;;8.80;99.90;;;;;;5052761;28;20563;-79
2021/11/18 15:22:26;;;;;;;17.05;4.65;;;8.70;99.90;;;;;;5052749;28;20168;-79
2021/11/18 15:25:01;;;;;;;14.90;4.97;;;8.70;99.90;;;;;;5053769;28;20176;-79
2021/11/18 15:27:28;;;;;;;16.20;5.20;;;8.70;99.90;;;;;;5056437;28;20169;-79
